Puerto Banus, Marbella

>

This is an optional block (switch it off / on) in the settings - file ($SITE['banners'] = false;)

You can display ads, any other important text or photo’s using text / html or PHP code.

You can place one or more at the top and or bottom and it can all be different for content / size .



Meteosat more information blitzortung!


Radar lluvias  rain snow radar


Visita nuestra red de sitios de meteo:

Documentation for the template used

MeteoibericaRed estaciones Meteorologicas

MeteoclimaticRed estaciones Meteorologicas



Sin Advertencias climatologicas .En este momento tenemos Nivel Verde.    No hay Alarmas

Pagina Historial Weather Underground texto

Diario Resumen January 4, 2017 Unidades:  Métrico    impérial   Tanto
« Anterior Dia
Siguiente Dia »
Diario Semana Mensual Anual Personalizada
  Maxima: Minima: Media:
Temperatura: 18.9 °C 11.7 °C 14.6 °C
Punto de rocío: 12.2 °C 4.9 °C 8 °C
Humedad: 75 % 48 % 65 %
Velocidad del Viento: 18.5 km/h 0.0 km/h 9.7 km/h
Ráfagas de viento: 18.5 km/h - -
Viento:- - West
Pression baro: 1026.6 hPa 1023.2 hPa -
Précipitaciones: 0.0 mm    
Historical Graphs
 
 
Datos de tabla para January 4, 2017
Tiempo Temperatura Punto de rocío Pression baro Viento Velocidad del Viento Ráfagas de viento Humedad Las precipitaciones Rate ( Hora )
00:02 12.9 °C 7.8 °C 1026.3 hPa North 14.8 km/h 14.8 km/h 71 % 0.0 mm
00:07 12.9 °C 7.8 °C 1026.3 hPa North 14.8 km/h 14.8 km/h 71 % 0.0 mm
00:12 12.9 °C 7.6 °C 1026.3 hPa North 13.0 km/h 13.0 km/h 70 % 0.0 mm
00:17 12.8 °C 7.5 °C 1026.3 hPa North 16.7 km/h 16.7 km/h 70 % 0.0 mm
00:22 12.8 °C 7.5 °C 1026.3 hPa North 14.8 km/h 14.8 km/h 70 % 0.0 mm
00:27 12.8 °C 7.5 °C 1026.3 hPa North 14.8 km/h 14.8 km/h 70 % 0.0 mm
00:32 12.8 °C 7.5 °C 1026.3 hPa North 14.8 km/h 14.8 km/h 70 % 0.0 mm
00:37 12.8 °C 7.5 °C 1026.0 hPa North 13.0 km/h 13.0 km/h 70 % 0.0 mm
00:42 12.8 °C 7.5 °C 1026.0 hPa North 14.8 km/h 14.8 km/h 70 % 0.0 mm
00:47 12.8 °C 7.4 °C 1026.0 hPa North 14.8 km/h 14.8 km/h 70 % 0.0 mm
00:52 12.8 °C 7.2 °C 1026.0 hPa North 14.8 km/h 14.8 km/h 69 % 0.0 mm
00:57 12.8 °C 7.4 °C 1026.0 hPa North 13.0 km/h 13.0 km/h 70 % 0.0 mm
01:02 12.7 °C 7.4 °C 1026.0 hPa North 13.0 km/h 13.0 km/h 70 % 0.0 mm
01:07 12.7 °C 7.2 °C 1026.0 hPa North 14.8 km/h 14.8 km/h 69 % 0.0 mm
01:12 12.7 °C 7.3 °C 1026.0 hPa North 14.8 km/h 14.8 km/h 70 % 0.0 mm
01:17 12.7 °C 7.2 °C 1026.0 hPa North 16.7 km/h 16.7 km/h 69 % 0.0 mm
01:22 12.7 °C 7.2 °C 1026.0 hPa North 14.8 km/h 14.8 km/h 69 % 0.0 mm
01:27 12.7 °C 7.2 °C 1026.0 hPa North 14.8 km/h 14.8 km/h 69 % 0.0 mm
01:32 12.8 °C 7.2 °C 1025.6 hPa North 18.5 km/h 18.5 km/h 69 % 0.0 mm
01:37 12.8 °C 7.1 °C 1025.6 hPa North 13.0 km/h 13.0 km/h 68 % 0.0 mm
01:42 12.8 °C 7.1 °C 1025.6 hPa NNW 14.8 km/h 14.8 km/h 68 % 0.0 mm
01:47 12.8 °C 7.1 °C 1025.6 hPa NNW 18.5 km/h 18.5 km/h 68 % 0.0 mm
01:52 12.8 °C 7.1 °C 1025.6 hPa North 16.7 km/h 16.7 km/h 68 % 0.0 mm
01:57 12.8 °C 7.0 °C 1025.6 hPa North 14.8 km/h 14.8 km/h 68 % 0.0 mm
02:02 12.7 °C 6.9 °C 1025.3 hPa NNW 16.7 km/h 16.7 km/h 68 % 0.0 mm
02:07 12.7 °C 6.9 °C 1025.3 hPa North 14.8 km/h 14.8 km/h 68 % 0.0 mm
02:12 12.6 °C 6.8 °C 1025.3 hPa North 14.8 km/h 14.8 km/h 68 % 0.0 mm
02:17 12.7 °C 6.9 °C 1025.3 hPa North 13.0 km/h 13.0 km/h 68 % 0.0 mm
02:22 12.7 °C 6.7 °C 1025.3 hPa North 16.1 km/h 16.1 km/h 67 % 0.0 mm
02:27 12.7 °C 6.7 °C 1025.3 hPa North 14.8 km/h 14.8 km/h 67 % 0.0 mm
02:32 12.7 °C 6.7 °C 1025.3 hPa North 16.7 km/h 16.7 km/h 67 % 0.0 mm
02:37 12.7 °C 6.7 °C 1025.3 hPa North 13.0 km/h 13.0 km/h 67 % 0.0 mm
02:42 12.7 °C 6.7 °C 1025.3 hPa North 14.8 km/h 14.8 km/h 67 % 0.0 mm
02:47 12.7 °C 6.7 °C 1025.3 hPa NNW 14.8 km/h 14.8 km/h 67 % 0.0 mm
02:52 12.6 °C 6.7 °C 1025.3 hPa NNE 14.8 km/h 14.8 km/h 67 % 0.0 mm
02:57 12.5 °C 6.6 °C 1025.3 hPa NNE 18.5 km/h 18.5 km/h 67 % 0.0 mm
03:02 12.4 °C 6.5 °C 1025.3 hPa North 18.5 km/h 18.5 km/h 67 % 0.0 mm
03:07 12.3 °C 6.6 °C 1025.3 hPa North 14.8 km/h 14.8 km/h 68 % 0.0 mm
03:12 12.3 °C 6.6 °C 1025.3 hPa North 14.8 km/h 14.8 km/h 68 % 0.0 mm
03:17 12.3 °C 6.6 °C 1025.3 hPa North 16.7 km/h 16.7 km/h 68 % 0.0 mm
03:22 12.3 °C 6.6 °C 1025.3 hPa North 18.5 km/h 18.5 km/h 68 % 0.0 mm
03:27 12.3 °C 6.3 °C 1025.3 hPa North 14.8 km/h 14.8 km/h 67 % 0.0 mm
03:32 12.2 °C 6.3 °C 1025.3 hPa North 16.7 km/h 16.7 km/h 67 % 0.0 mm
03:37 12.3 °C 6.3 °C 1025.3 hPa North 16.7 km/h 16.7 km/h 67 % 0.0 mm
03:42 12.2 °C 6.3 °C 1025.3 hPa North 16.7 km/h 16.7 km/h 67 % 0.0 mm
03:47 12.2 °C 6.3 °C 1025.3 hPa North 16.7 km/h 16.7 km/h 67 % 0.0 mm
03:52 12.2 °C 6.2 °C 1025.3 hPa NNW 18.5 km/h 18.5 km/h 67 % 0.0 mm
03:57 12.1 °C 6.2 °C 1025.3 hPa North 14.8 km/h 14.8 km/h 67 % 0.0 mm
04:02 12.1 °C 6.2 °C 1025.3 hPa NNW 14.8 km/h 14.8 km/h 67 % 0.0 mm
04:07 12.1 °C 6.2 °C 1025.3 hPa North 16.7 km/h 16.7 km/h 67 % 0.0 mm
04:12 12.2 °C 6.2 °C 1025.3 hPa North 13.0 km/h 13.0 km/h 67 % 0.0 mm
04:17 12.2 °C 6.3 °C 1025.6 hPa North 13.0 km/h 13.0 km/h 67 % 0.0 mm
04:22 12.2 °C 6.0 °C 1025.3 hPa North 13.0 km/h 13.0 km/h 66 % 0.0 mm
04:27 12.2 °C 6.0 °C 1025.3 hPa North 13.0 km/h 13.0 km/h 66 % 0.0 mm
04:32 12.1 °C 5.9 °C 1025.3 hPa North 11.3 km/h 11.3 km/h 66 % 0.0 mm
04:37 12.1 °C 5.9 °C 1025.3 hPa North 14.8 km/h 14.8 km/h 66 % 0.0 mm
04:42 12.1 °C 5.9 °C 1025.3 hPa NNW 14.8 km/h 14.8 km/h 66 % 0.0 mm
04:47 12.1 °C 5.9 °C 1025.3 hPa NNW 16.7 km/h 16.7 km/h 66 % 0.0 mm
04:52 12.0 °C 5.8 °C 1025.3 hPa North 16.7 km/h 16.7 km/h 66 % 0.0 mm
04:57 11.9 °C 5.8 °C 1025.3 hPa North 16.7 km/h 16.7 km/h 66 % 0.0 mm
05:02 11.8 °C 5.9 °C 1025.3 hPa North 13.0 km/h 13.0 km/h 67 % 0.0 mm
05:07 11.8 °C 5.8 °C 1025.3 hPa North 14.8 km/h 14.8 km/h 67 % 0.0 mm
05:12 11.8 °C 5.8 °C 1024.9 hPa North 14.8 km/h 14.8 km/h 67 % 0.0 mm
05:17 11.8 °C 5.9 °C 1025.3 hPa North 18.5 km/h 18.5 km/h 67 % 0.0 mm
05:23 11.8 °C 5.9 °C 1024.9 hPa NNW 16.7 km/h 16.7 km/h 67 % 0.0 mm
05:28 11.8 °C 5.8 °C 1024.9 hPa North 14.8 km/h 14.8 km/h 67 % 0.0 mm
05:33 11.8 °C 5.9 °C 1024.9 hPa NNW 16.7 km/h 16.7 km/h 67 % 0.0 mm
05:38 11.8 °C 5.7 °C 1024.9 hPa North 16.7 km/h 16.7 km/h 66 % 0.0 mm
05:43 11.8 °C 5.7 °C 1024.9 hPa North 16.7 km/h 16.7 km/h 66 % 0.0 mm
05:48 11.8 °C 5.7 °C 1024.9 hPa North 16.7 km/h 16.7 km/h 66 % 0.0 mm
05:53 11.8 °C 5.7 °C 1024.9 hPa North 14.8 km/h 14.8 km/h 66 % 0.0 mm
05:58 11.9 °C 5.7 °C 1024.9 hPa North 16.1 km/h 16.1 km/h 66 % 0.0 mm
06:03 12.0 °C 5.6 °C 1024.9 hPa North 16.7 km/h 16.7 km/h 65 % 0.0 mm
06:08 12.0 °C 5.6 °C 1024.9 hPa North 14.8 km/h 14.8 km/h 65 % 0.0 mm
06:13 11.9 °C 5.6 °C 1024.9 hPa North 16.7 km/h 16.7 km/h 65 % 0.0 mm
06:18 11.9 °C 5.6 °C 1024.6 hPa NNW 14.8 km/h 14.8 km/h 65 % 0.0 mm
06:23 11.9 °C 5.3 °C 1024.6 hPa North 14.8 km/h 14.8 km/h 64 % 0.0 mm
06:28 11.9 °C 5.3 °C 1024.6 hPa NNW 16.7 km/h 16.7 km/h 64 % 0.0 mm
06:33 11.9 °C 5.3 °C 1024.6 hPa NNW 13.0 km/h 13.0 km/h 64 % 0.0 mm
06:38 11.9 °C 5.3 °C 1024.6 hPa North 13.0 km/h 13.0 km/h 64 % 0.0 mm
06:43 11.9 °C 5.3 °C 1024.6 hPa North 14.8 km/h 14.8 km/h 64 % 0.0 mm
06:48 11.9 °C 5.3 °C 1024.6 hPa North 14.8 km/h 14.8 km/h 64 % 0.0 mm
06:53 11.8 °C 5.2 °C 1024.6 hPa North 16.7 km/h 16.7 km/h 64 % 0.0 mm
06:58 11.8 °C 5.2 °C 1024.9 hPa North 13.0 km/h 13.0 km/h 64 % 0.0 mm
07:03 11.9 °C 5.1 °C 1024.6 hPa NNW 13.0 km/h 13.0 km/h 63 % 0.0 mm
07:08 11.9 °C 5.1 °C 1024.6 hPa NNW 13.0 km/h 13.0 km/h 63 % 0.0 mm
07:13 12.0 °C 5.2 °C 1024.6 hPa North 9.3 km/h 9.3 km/h 63 % 0.0 mm
07:18 12.0 °C 5.2 °C 1024.6 hPa NNW 11.3 km/h 11.3 km/h 63 % 0.0 mm
07:23 12.0 °C 4.9 °C 1024.6 hPa NNW 13.0 km/h 13.0 km/h 62 % 0.0 mm
07:28 12.1 °C 5.0 °C 1024.6 hPa North 11.1 km/h 11.1 km/h 62 % 0.0 mm
07:33 11.8 °C 5.0 °C 1024.6 hPa North 11.3 km/h 11.3 km/h 63 % 0.0 mm
07:38 11.7 °C 5.1 °C 1024.9 hPa North 16.1 km/h 16.1 km/h 64 % 0.0 mm
07:43 11.7 °C 5.1 °C 1024.9 hPa North 12.9 km/h 12.9 km/h 64 % 0.0 mm
07:48 11.7 °C 5.1 °C 1024.9 hPa North 13.0 km/h 13.0 km/h 64 % 0.0 mm
07:53 11.7 °C 5.1 °C 1024.9 hPa North 13.0 km/h 13.0 km/h 64 % 0.0 mm
07:58 11.7 °C 5.1 °C 1024.9 hPa North 13.0 km/h 13.0 km/h 64 % 0.0 mm
08:03 11.7 °C 5.1 °C 1024.9 hPa North 8.0 km/h 8.0 km/h 64 % 0.0 mm
08:08 11.8 °C 5.2 °C 1025.3 hPa North 11.1 km/h 11.1 km/h 64 % 0.0 mm
08:13 11.8 °C 5.2 °C 1025.3 hPa North 14.8 km/h 14.8 km/h 64 % 0.0 mm
08:18 11.8 °C 5.0 °C 1025.3 hPa NNW 8.0 km/h 8.0 km/h 63 % 0.0 mm
08:23 11.9 °C 5.1 °C 1025.3 hPa North 9.3 km/h 9.3 km/h 63 % 0.0 mm
08:28 11.9 °C 5.1 °C 1025.3 hPa NNW 11.1 km/h 11.1 km/h 63 % 0.0 mm
08:33 12.0 °C 5.2 °C 1025.3 hPa North 13.0 km/h 13.0 km/h 63 % 0.0 mm
08:38 12.1 °C 5.2 °C 1025.3 hPa NNW 11.3 km/h 11.3 km/h 63 % 0.0 mm
08:43 12.0 °C 5.2 °C 1025.3 hPa North 11.3 km/h 11.3 km/h 63 % 0.0 mm
08:48 12.1 °C 5.2 °C 1025.3 hPa North 9.7 km/h 9.7 km/h 63 % 0.0 mm
08:53 12.1 °C 5.4 °C 1025.3 hPa NNW 11.1 km/h 11.1 km/h 64 % 0.0 mm
08:58 12.1 °C 5.5 °C 1025.3 hPa North 13.0 km/h 13.0 km/h 64 % 0.0 mm
09:03 12.3 °C 5.5 °C 1025.6 hPa NNW 14.8 km/h 14.8 km/h 63 % 0.0 mm
09:08 12.4 °C 5.6 °C 1025.6 hPa NNW 13.0 km/h 13.0 km/h 63 % 0.0 mm
09:13 12.7 °C 5.8 °C 1025.6 hPa North 14.8 km/h 14.8 km/h 63 % 0.0 mm
09:18 12.8 °C 5.7 °C 1025.6 hPa NNW 14.8 km/h 14.8 km/h 62 % 0.0 mm
09:23 12.9 °C 5.8 °C 1025.6 hPa North 11.1 km/h 11.1 km/h 62 % 0.0 mm
09:28 13.1 °C 5.9 °C 1025.6 hPa North 11.3 km/h 11.3 km/h 62 % 0.0 mm
09:33 13.2 °C 6.1 °C 1025.6 hPa North 13.0 km/h 13.0 km/h 62 % 0.0 mm
09:38 13.3 °C 6.2 °C 1025.6 hPa North 12.9 km/h 12.9 km/h 62 % 0.0 mm
09:43 13.4 °C 6.3 °C 1025.6 hPa NNW 9.3 km/h 9.3 km/h 62 % 0.0 mm
09:48 13.5 °C 6.3 °C 1025.6 hPa NNW 7.4 km/h 7.4 km/h 62 % 0.0 mm
09:53 13.6 °C 6.4 °C 1025.6 hPa NNW 5.6 km/h 5.6 km/h 62 % 0.0 mm
09:58 13.6 °C 6.4 °C 1025.6 hPa North 9.3 km/h 9.3 km/h 62 % 0.0 mm
10:03 13.8 °C 6.6 °C 1026.0 hPa NNW 9.3 km/h 9.3 km/h 62 % 0.0 mm
10:08 13.9 °C 6.7 °C 1026.0 hPa North 11.1 km/h 11.1 km/h 62 % 0.0 mm
10:13 14.1 °C 6.9 °C 1026.0 hPa NNW 9.3 km/h 9.3 km/h 62 % 0.0 mm
10:18 14.3 °C 6.8 °C 1026.0 hPa NNW 13.0 km/h 13.0 km/h 61 % 0.0 mm
10:23 14.5 °C 7.1 °C 1026.0 hPa North 11.1 km/h 11.1 km/h 61 % 0.0 mm
10:28 14.7 °C 7.0 °C 1026.0 hPa North 6.4 km/h 6.4 km/h 60 % 0.0 mm
10:33 14.9 °C 7.0 °C 1026.0 hPa NNE 7.4 km/h 7.4 km/h 59 % 0.0 mm
10:39 15.1 °C 7.4 °C 1026.3 hPa NNE 5.6 km/h   60 % 0.0 mm
10:44 15.3 °C 7.8 °C 1026.3 hPa NNW 4.8 km/h 4.8 km/h 61 % 0.0 mm
10:49 15.4 °C 8.2 °C 1026.3 hPa NNW 3.7 km/h 3.7 km/h 62 % 0.0 mm
10:54 15.5 °C 8.5 °C 1026.3 hPa West 5.6 km/h 5.6 km/h 63 % 0.0 mm
10:59 15.5 °C 8.7 °C 1026.3 hPa West 3.7 km/h 3.7 km/h 64 % 0.0 mm
11:04 15.6 °C 8.8 °C 1026.3 hPa West 3.7 km/h 3.7 km/h 64 % 0.0 mm
11:09 15.6 °C 8.6 °C 1026.3 hPa WSW 5.6 km/h 5.6 km/h 63 % 0.0 mm
11:14 15.7 °C 8.9 °C 1026.3 hPa Calm     64 % 0.0 mm
11:19 15.8 °C 8.8 °C 1026.3 hPa WSW 5.6 km/h 5.6 km/h 63 % 0.0 mm
11:24 15.9 °C 8.7 °C 1026.6 hPa WSW 3.7 km/h 3.7 km/h 62 % 0.0 mm
11:29 16.1 °C 9.0 °C 1026.6 hPa WSW 5.6 km/h 5.6 km/h 63 % 0.0 mm
11:34 16.1 °C 9.2 °C 1026.3 hPa WSW 5.6 km/h 5.6 km/h 64 % 0.0 mm
11:39 16.1 °C 9.3 °C 1026.3 hPa WSW 5.6 km/h 5.6 km/h 64 % 0.0 mm
11:44 16.2 °C 9.3 °C 1026.3 hPa WSW 8.0 km/h 8.0 km/h 64 % 0.0 mm
11:49 16.2 °C 9.1 °C 1026.3 hPa WSW 5.6 km/h 5.6 km/h 63 % 0.0 mm
11:54 16.1 °C 9.0 °C 1026.3 hPa WSW 5.6 km/h 5.6 km/h 63 % 0.0 mm
11:59 16.2 °C 9.6 °C 1026.3 hPa WSW 8.0 km/h 8.0 km/h 65 % 0.0 mm
12:04 16.3 °C 9.9 °C 1026.3 hPa WSW 8.0 km/h 8.0 km/h 66 % 0.0 mm
12:09 16.3 °C 9.9 °C 1026.3 hPa WSW 8.0 km/h 8.0 km/h 66 % 0.0 mm
12:14 16.3 °C 9.7 °C 1026.3 hPa WSW 8.0 km/h 8.0 km/h 65 % 0.0 mm
12:19 16.3 °C 9.7 °C 1026.3 hPa WSW 9.3 km/h 9.3 km/h 65 % 0.0 mm
12:24 16.3 °C 9.9 °C 1026.0 hPa WSW 11.1 km/h 11.1 km/h 66 % 0.0 mm
12:29 16.3 °C 9.7 °C 1026.0 hPa SW 11.3 km/h 11.3 km/h 65 % 0.0 mm
12:34 16.3 °C 9.9 °C 1026.0 hPa WSW 11.1 km/h 11.1 km/h 66 % 0.0 mm
12:39 16.2 °C 9.6 °C 1026.0 hPa WSW 11.1 km/h 11.1 km/h 65 % 0.0 mm
12:44 16.3 °C 9.7 °C 1026.0 hPa WSW 8.0 km/h 8.0 km/h 65 % 0.0 mm
12:49 16.3 °C 9.7 °C 1026.0 hPa WSW 7.4 km/h 7.4 km/h 65 % 0.0 mm
12:54 16.3 °C 9.5 °C 1025.6 hPa SW 9.3 km/h 9.3 km/h 64 % 0.0 mm
12:59 16.4 °C 9.6 °C 1025.6 hPa WSW 7.4 km/h 7.4 km/h 64 % 0.0 mm
13:04 16.4 °C 9.4 °C 1025.6 hPa WSW 5.6 km/h 5.6 km/h 63 % 0.0 mm
13:09 16.6 °C 9.8 °C 1025.3 hPa SW 6.4 km/h 6.4 km/h 64 % 0.0 mm
13:14 16.7 °C 10.1 °C 1025.3 hPa SW 5.6 km/h 5.6 km/h 65 % 0.0 mm
13:19 16.9 °C 10.9 °C 1024.9 hPa SW 5.6 km/h 5.6 km/h 68 % 0.0 mm
13:24 17.1 °C 11.1 °C 1024.9 hPa SW 5.6 km/h 5.6 km/h 68 % 0.0 mm
13:29 17.2 °C 11.5 °C 1024.9 hPa SW 5.6 km/h 5.6 km/h 69 % 0.0 mm
13:34 17.4 °C 11.7 °C 1024.9 hPa SW 3.7 km/h 3.7 km/h 69 % 0.0 mm
13:39 17.4 °C 11.8 °C 1024.9 hPa SW 5.6 km/h 5.6 km/h 70 % 0.0 mm
13:44 17.3 °C 11.6 °C 1024.9 hPa SW 5.6 km/h 5.6 km/h 69 % 0.0 mm
13:49 17.6 °C 12.0 °C 1024.9 hPa SW 5.6 km/h 5.6 km/h 70 % 0.0 mm
13:54 17.7 °C 12.2 °C 1024.6 hPa Calm     70 % 0.0 mm
13:59 17.6 °C 12.0 °C 1024.6 hPa SW 1.9 km/h 1.9 km/h 70 % 0.0 mm
14:04 17.6 °C 12.0 °C 1024.6 hPa Calm     70 % 0.0 mm
14:09 17.7 °C 11.9 °C 1024.6 hPa Calm     69 % 0.0 mm
14:14 17.6 °C 11.8 °C 1024.3 hPa SW 1.9 km/h 1.9 km/h 69 % 0.0 mm
14:19 17.3 °C 11.8 °C 1024.3 hPa SW 3.7 km/h 3.7 km/h 70 % 0.0 mm
14:24 17.3 °C 11.8 °C 1024.3 hPa SW 1.6 km/h 1.6 km/h 70 % 0.0 mm
14:29 17.0 °C 11.7 °C 1024.3 hPa SW 3.7 km/h 3.7 km/h 71 % 0.0 mm
14:34 16.9 °C 11.7 °C 1023.9 hPa SW 3.7 km/h 3.7 km/h 71 % 0.0 mm
14:39 17.0 °C 11.7 °C 1023.9 hPa Calm     71 % 0.0 mm
14:44 17.2 °C 11.0 °C 1023.9 hPa Calm     67 % 0.0 mm
14:49 17.2 °C 11.5 °C 1023.9 hPa SW 3.7 km/h 3.7 km/h 69 % 0.0 mm
14:54 17.1 °C 11.3 °C 1023.9 hPa SW 1.9 km/h 1.9 km/h 69 % 0.0 mm
14:59 17.0 °C 11.1 °C 1023.9 hPa SW 1.9 km/h 1.9 km/h 68 % 0.0 mm
15:04 17.0 °C 11.3 °C 1023.9 hPa SW 3.7 km/h 3.7 km/h 69 % 0.0 mm
15:09 17.1 °C 11.6 °C 1023.9 hPa SW 1.9 km/h   70 % 0.0 mm
15:14 17.1 °C 11.6 °C 1023.6 hPa SW 1.9 km/h 1.9 km/h 70 % 0.0 mm
15:19 17.4 °C 11.7 °C 1023.6 hPa Calm     69 % 0.0 mm
15:24 17.7 °C 10.6 °C 1023.6 hPa Calm     63 % 0.0 mm
15:29 18.2 °C 10.8 °C 1023.6 hPa Calm     62 % 0.0 mm
15:34 18.4 °C 9.4 °C 1023.6 hPa SW 3.7 km/h 3.7 km/h 56 % 0.0 mm
15:40 18.6 °C 9.1 °C 1023.6 hPa SW 3.7 km/h 3.7 km/h 54 % 0.0 mm
15:45 18.7 °C 8.9 °C 1023.6 hPa SW 3.7 km/h 3.7 km/h 53 % 0.0 mm
15:50 18.8 °C 9.1 °C 1023.6 hPa SW 3.7 km/h 3.7 km/h 53 % 0.0 mm
15:55 18.8 °C 9.3 °C 1023.6 hPa SW 3.2 km/h 3.2 km/h 54 % 0.0 mm
16:00 18.3 °C 9.9 °C 1023.6 hPa SW 5.6 km/h 5.6 km/h 58 % 0.0 mm
16:05 18.1 °C 9.4 °C 1023.6 hPa SW 1.9 km/h   57 % 0.0 mm
16:10 18.2 °C 9.0 °C 1023.6 hPa Calm     55 % 0.0 mm
16:15 18.3 °C 9.6 °C 1023.6 hPa SW 3.2 km/h 4.8 km/h 57 % 0.0 mm
16:20 17.9 °C 9.0 °C 1023.6 hPa SSE 3.7 km/h 3.7 km/h 56 % 0.0 mm
16:25 17.8 °C 9.2 °C 1023.6 hPa Calm   3.2 km/h 57 % 0.0 mm
16:30 17.9 °C 9.0 °C 1023.2 hPa Calm   0.2 km/h 56 % 0.0 mm
16:35 17.9 °C 8.5 °C 1023.2 hPa Calm   1.6 km/h 54 % 0.0 mm
16:40 18.1 °C 8.3 °C 1023.6 hPa SSE 1.6 km/h 3.2 km/h 53 % 0.0 mm
16:45 17.9 °C 7.9 °C 1023.6 hPa SSE 3.7 km/h 3.7 km/h 52 % 0.0 mm
16:50 18.0 °C 7.4 °C 1023.6 hPa Calm     50 % 0.0 mm
16:55 18.1 °C 7.5 °C 1023.6 hPa SSE 1.6 km/h 3.2 km/h 50 % 0.0 mm
17:00 18.1 °C 7.8 °C 1023.6 hPa SSE 3.7 km/h 3.7 km/h 51 % 0.0 mm
17:05 18.1 °C 7.2 °C 1023.6 hPa Calm     49 % 0.0 mm
17:10 18.1 °C 7.5 °C 1023.2 hPa Calm     50 % 0.0 mm
17:15 18.3 °C 7.9 °C 1023.2 hPa Calm     51 % 0.0 mm
17:20 18.6 °C 8.3 °C 1023.2 hPa Calm     51 % 0.0 mm
17:25 18.8 °C 8.2 °C 1023.6 hPa Calm     50 % 0.0 mm
17:30 18.8 °C 7.9 °C 1023.2 hPa Calm     49 % 0.0 mm
17:35 18.9 °C 8.3 °C 1023.6 hPa Calm     50 % 0.0 mm
17:40 18.9 °C 7.7 °C 1023.6 hPa Calm     48 % 0.0 mm
17:45 18.7 °C 7.7 °C 1023.6 hPa SSE 1.9 km/h   49 % 0.0 mm
17:50 18.4 °C 7.8 °C 1023.6 hPa Calm     50 % 0.0 mm
17:55 18.4 °C 8.6 °C 1023.6 hPa Calm     53 % 0.0 mm
18:00 18.2 °C 8.2 °C 1023.2 hPa Calm     52 % 0.0 mm
18:05 18.1 °C 8.4 °C 1023.2 hPa Calm     53 % 0.0 mm
18:10 17.9 °C 10.3 °C 1023.2 hPa Calm     61 % 0.0 mm
18:15 17.6 °C 7.9 °C 1023.2 hPa Calm     53 % 0.0 mm
18:20 17.4 °C 8.8 °C 1023.2 hPa SSE 6.4 km/h 6.4 km/h 57 % 0.0 mm
18:25 16.9 °C 8.6 °C 1023.2 hPa North 7.4 km/h 7.4 km/h 58 % 0.0 mm
18:30 16.6 °C 8.5 °C 1023.2 hPa North 9.3 km/h 9.3 km/h 59 % 0.0 mm
18:35 16.2 °C 8.4 °C 1023.2 hPa North 9.3 km/h 9.3 km/h 60 % 0.0 mm
18:40 16.0 °C 8.4 °C 1023.6 hPa North 8.0 km/h 9.7 km/h 61 % 0.0 mm
18:45 15.7 °C 8.7 °C 1023.6 hPa North 11.3 km/h 11.3 km/h 63 % 0.0 mm
18:50 15.4 °C 8.9 °C 1023.6 hPa North 14.8 km/h 14.8 km/h 65 % 0.0 mm
18:55 15.2 °C 8.8 °C 1023.6 hPa North 14.8 km/h 14.8 km/h 66 % 0.0 mm
19:00 14.9 °C 9.1 °C 1023.6 hPa North 13.0 km/h 13.0 km/h 68 % 0.0 mm
19:05 14.8 °C 9.2 °C 1023.6 hPa North 13.0 km/h 13.0 km/h 69 % 0.0 mm
19:10 14.7 °C 9.1 °C 1023.6 hPa North 13.0 km/h 13.0 km/h 69 % 0.0 mm
19:15 14.7 °C 9.1 °C 1023.6 hPa NNW 13.0 km/h 13.0 km/h 69 % 0.0 mm
19:20 14.7 °C 9.1 °C 1023.6 hPa NNW 13.0 km/h 13.0 km/h 69 % 0.0 mm
19:25 14.7 °C 9.1 °C 1023.6 hPa NNW 13.0 km/h 13.0 km/h 69 % 0.0 mm
19:30 14.8 °C 9.2 °C 1023.6 hPa North 9.3 km/h 9.3 km/h 69 % 0.0 mm
19:35 14.8 °C 9.2 °C 1023.6 hPa North 11.1 km/h 11.1 km/h 69 % 0.0 mm
19:40 14.8 °C 9.2 °C 1023.6 hPa North 11.1 km/h 11.1 km/h 69 % 0.0 mm
19:45 14.8 °C 9.2 °C 1023.6 hPa North 14.8 km/h 14.8 km/h 69 % 0.0 mm
19:50 14.8 °C 9.2 °C 1023.6 hPa NNW 11.1 km/h 11.1 km/h 69 % 0.0 mm
19:55 14.8 °C 9.0 °C 1023.6 hPa North 14.8 km/h 14.8 km/h 68 % 0.0 mm
20:00 14.8 °C 9.0 °C 1023.6 hPa North 11.1 km/h 11.1 km/h 68 % 0.0 mm
20:05 14.8 °C 9.0 °C 1023.6 hPa North 14.8 km/h 14.8 km/h 68 % 0.0 mm
20:10 14.8 °C 9.0 °C 1023.9 hPa North 14.8 km/h 14.8 km/h 68 % 0.0 mm
20:15 14.8 °C 9.0 °C 1023.9 hPa North 14.8 km/h 14.8 km/h 68 % 0.0 mm
20:20 14.8 °C 9.0 °C 1023.9 hPa NNW 14.8 km/h 14.8 km/h 68 % 0.0 mm
20:25 14.8 °C 9.2 °C 1023.9 hPa North 16.1 km/h 16.1 km/h 69 % 0.0 mm
20:30 14.7 °C 9.1 °C 1023.9 hPa North 14.8 km/h 14.8 km/h 69 % 0.0 mm
20:35 14.7 °C 9.1 °C 1023.9 hPa North 14.8 km/h 14.8 km/h 69 % 0.0 mm
20:40 14.6 °C 9.0 °C 1023.9 hPa North 16.1 km/h 16.1 km/h 69 % 0.0 mm
20:45 14.7 °C 9.1 °C 1023.9 hPa North 14.8 km/h 14.8 km/h 69 % 0.0 mm
20:50 14.7 °C 9.1 °C 1023.9 hPa NNW 14.8 km/h 14.8 km/h 69 % 0.0 mm
20:55 14.7 °C 9.1 °C 1023.9 hPa North 13.0 km/h 13.0 km/h 69 % 0.0 mm
21:00 14.7 °C 8.9 °C 1023.9 hPa North 11.1 km/h 11.1 km/h 68 % 0.0 mm
21:05 14.7 °C 8.9 °C 1023.9 hPa North 14.5 km/h 14.5 km/h 68 % 0.0 mm
21:10 14.8 °C 9.0 °C 1023.9 hPa North 9.3 km/h 9.3 km/h 68 % 0.0 mm
21:15 14.9 °C 8.8 °C 1023.9 hPa North 9.3 km/h 9.3 km/h 67 % 0.0 mm
21:21 14.8 °C 8.8 °C 1023.9 hPa North 9.3 km/h 9.3 km/h 67 % 0.0 mm
21:26 14.8 °C 8.9 °C 1023.9 hPa North 13.0 km/h 13.0 km/h 68 % 0.0 mm
21:31 14.8 °C 9.0 °C 1023.9 hPa North 11.1 km/h 11.1 km/h 68 % 0.0 mm
21:36 14.8 °C 9.0 °C 1023.9 hPa North 11.1 km/h 11.1 km/h 68 % 0.0 mm
21:41 14.9 °C 8.8 °C 1023.9 hPa North 14.8 km/h 14.8 km/h 67 % 0.0 mm
21:46 14.9 °C 8.8 °C 1023.9 hPa North 16.7 km/h 16.7 km/h 67 % 0.0 mm
21:51 14.9 °C 8.8 °C 1023.9 hPa North 14.8 km/h 14.8 km/h 67 % 0.0 mm
21:56 14.9 °C 8.8 °C 1023.9 hPa North 11.1 km/h 11.1 km/h 67 % 0.0 mm
22:01 14.9 °C 9.1 °C 1023.9 hPa North 7.4 km/h 7.4 km/h 68 % 0.0 mm
22:06 15.2 °C 9.3 °C 1023.9 hPa North 11.1 km/h 11.1 km/h 68 % 0.0 mm
22:11 15.4 °C 9.3 °C 1023.9 hPa NNW 9.3 km/h 9.3 km/h 67 % 0.0 mm
22:16 15.3 °C 9.0 °C 1023.9 hPa NNE 8.0 km/h 8.0 km/h 66 % 0.0 mm
22:21 15.3 °C 8.9 °C 1023.9 hPa NNE 11.1 km/h 11.1 km/h 66 % 0.0 mm
22:26 15.3 °C 9.2 °C 1023.6 hPa North 9.3 km/h 9.3 km/h 67 % 0.0 mm
22:31 15.3 °C 9.2 °C 1023.6 hPa North 11.1 km/h 11.1 km/h 67 % 0.0 mm
22:36 15.4 °C 9.3 °C 1023.6 hPa NNW 9.3 km/h 9.3 km/h 67 % 0.0 mm
22:41 15.6 °C 9.4 °C 1023.6 hPa North 7.4 km/h 7.4 km/h 67 % 0.0 mm
22:46 16.1 °C 9.7 °C 1023.6 hPa NE 3.7 km/h 3.7 km/h 66 % 0.0 mm
22:51 16.1 °C 9.9 °C 1023.6 hPa Calm     67 % 0.0 mm
22:56 16.0 °C 10.1 °C 1023.6 hPa Calm     68 % 0.0 mm
23:01 15.9 °C 10.3 °C 1023.6 hPa Calm     69 % 0.0 mm
23:06 15.9 °C 10.1 °C 1023.6 hPa West 5.6 km/h 5.6 km/h 68 % 0.0 mm
23:11 16.0 °C 9.9 °C 1023.6 hPa Calm     67 % 0.0 mm
23:16 16.1 °C 10.0 °C 1023.6 hPa Calm     67 % 0.0 mm
23:21 16.0 °C 10.7 °C 1023.6 hPa East 9.7 km/h 9.7 km/h 71 % 0.0 mm
23:26 15.7 °C 10.8 °C 1023.6 hPa East 5.6 km/h 5.6 km/h 73 % 0.0 mm
23:31 15.6 °C 10.9 °C 1023.6 hPa Calm     74 % 0.0 mm
23:36 15.6 °C 11.2 °C 1023.6 hPa Calm     75 % 0.0 mm
23:41 15.6 °C 11.2 °C 1023.6 hPa East 4.8 km/h 4.8 km/h 75 % 0.0 mm
23:46 15.6 °C 11.2 °C 1023.6 hPa East 7.4 km/h 7.4 km/h 75 % 0.0 mm
23:54 15.4 °C 10.8 °C 1023.6 hPa North 3.2 km/h 3.2 km/h 74 % 0.0 mm
Puerto Banus, Marbella
Elogios de Weather Underground - 1.75 mb

Guión original por  Jim McMurry - jmcmurry@mwt.net Adaptado para la plantilla por  Wim van der Kuil - Leuven-Template.eu

Usted encontrará nuestra información del tiempo también en:

Weather Underground

Iberian Peninsula Weather Network